Connecticut State Prison, Connecticut
Current Conditions -  °F | °C
As of 11:51 PM on Friday 28 Nov 2014 (Local Time) from KBDL Reporting Station
Clear Clear  
Wind Chill: -8°   Ceiling: Unl
Heat Index: -4°   Visibility: 10mi
Dew Point: -11°   Wind: 5mph
Humidity: 62%   Direction: 270°W
Pressure: 30.24"   Gusts: NA
Location:  41.9956°N, 72.451°W
Report Text: KBDL 290451Z 27004KT 10SM CLR M04/M11 A3024 RMK AO2 SLP242 T10441106 400221061
Loading
Personal Weather Stations






























Interactive Weather Map New forecast layout! Learn more

10-Day Weather Forecast

Advertisements
Track Severe Weather on mobile